ENSK Airport Information

Runway Information
Runway 09 Length 2848 ft width 0 ft
Elevation 8 ft Threshold 0 ft Heading 0
Runway 27 Length 2848 ft Width 0 ft
Elevation 11 ft Threshold 0 ft Heading 0
Airport Frequencies
Airport Navaids
Type VOR-DME Name Skagen Frequency 112800 KHZ
Airport Weather Information & NOTAM
ADDS - METARS form results

(0933 UTC 23 July 2018)
 
METAR text: ENSK 230850Z 29010KT 9999 VCSH FEW010 SCT015 BKN022 13/12 Q1006
Conditions at: ENSK (STORKMARKNES/SKA, NO) observed 0850 UTC 23 July 2018
Temperature: 13.0°C (55°F)
Dewpoint: 12.0°C (54°F) [RH = 94%]
Pressure (altimeter): 29.70 inches Hg (1006.0 mb)
Winds: from the WNW (290 degrees) at 12 MPH (10 knots; 5.2 m/s)
Visibility: 6 or more miles (10+ km)
Ceiling: 2200 feet AGL
Clouds: few clouds at 1000 feet AGL
scattered clouds at 1500 feet AGL
broken clouds at 2200 feet AGL
Weather: VCSH  (showers in vicinity)